Time;durP1;ratioP1;P1;durP2;ratioP2;P2;SDS_P1;SDS_P2;PMS_P1;PMS_P2;Temp;Humidity;BMP_temperature;BMP_pressure;BME280_temperature;BME280_humidity;BME280_pressure;Samples;Min_cycle;Max_cycle;Signal;HPM_P1;HPM_P2
2020/12/02 00:01:20;;;;;;;89.17;49.87;;;;;;;2.13;94.34;101027.06;5032513;28;20185;-72
2020/12/02 00:03:54;;;;;;;88.17;49.07;;;;;;;2.16;94.44;101020.38;5050413;28;20462;-71
2020/12/02 00:06:21;;;;;;;87.47;46.80;;;;;;;2.16;94.42;101021.19;5050343;28;20444;-71
2020/12/02 00:08:52;;;;;;;88.03;48.17;;;;;;;2.17;94.52;101019.31;5050208;28;20409;-73
2020/12/02 00:11:18;;;;;;;88.50;48.90;;;;;;;2.15;94.61;101024.94;5050284;28;20507;-72
2020/12/02 00:13:47;;;;;;;95.73;49.43;;;;;;;2.15;95.00;101016.84;5050332;28;20414;-71
2020/12/02 00:16:20;;;;;;;92.77;53.03;;;;;;;2.14;95.03;101023.31;5052121;28;20533;-71
2020/12/02 00:18:45;;;;;;;90.40;49.87;;;;;;;2.15;95.19;101021.44;5053988;28;20461;-72
2020/12/02 00:21:11;;;;;;;102.37;52.53;;;;;;;2.15;95.61;101019.56;5054134;28;20425;-71
2020/12/02 00:23:36;;;;;;;96.57;54.57;;;;;;;2.14;95.78;101022.50;5054083;28;20530;-72
2020/12/02 00:26:03;;;;;;;95.57;51.97;;;;;;;2.11;95.92;101015.72;5053815;28;20211;-72
2020/12/02 00:28:28;;;;;;;100.47;53.20;;;;;;;2.12;95.76;101017.34;5053729;28;20172;-73
2020/12/02 00:30:54;;;;;;;107.50;54.43;;;;;;;2.13;95.99;101020.84;5053911;28;20413;-72
2020/12/02 00:33:25;;;;;;;103.43;54.03;;;;;;;2.13;95.94;101018.16;5053963;28;20199;-71
2020/12/02 00:35:52;;;;;;;92.37;50.13;;;;;;;2.16;96.01;101014.97;5053957;28;20218;-72
2020/12/02 00:38:18;;;;;;;95.83;51.90;;;;;;;2.16;96.06;101012.28;5053515;28;20454;-71
2020/12/02 00:40:45;;;;;;;89.50;49.60;;;;;;;2.15;96.07;101019.56;5053664;28;20904;-72
2020/12/02 00:43:23;;;;;;;90.23;48.87;;;;;;;2.18;95.87;101015.56;5053471;28;20796;-71
2020/12/02 00:45:51;;;;;;;96.17;49.20;;;;;;;2.16;95.93;101017.66;5053727;28;20398;-71
2020/12/02 00:48:19;;;;;;;90.23;49.20;;;;;;;2.17;95.99;101024.69;5035665;28;20488;-71
2020/12/02 00:50:46;;;;;;;94.53;48.23;;;;;;;2.15;95.73;101018.72;5053825;28;20908;-72
2020/12/02 00:53:15;;;;;;;85.73;48.23;;;;;;;2.14;95.52;101019.78;5053413;28;20455;-71
2020/12/02 00:55:42;;;;;;;93.47;47.60;;;;;;;2.14;95.59;101017.09;5053303;28;20541;-71
2020/12/02 00:58:12;;;;;;;91.17;47.70;;;;;;;2.15;95.43;101021.44;5053138;28;21001;-72
2020/12/02 01:00:40;;;;;;;93.53;51.07;;;;;;;2.11;95.51;101021.09;5053350;28;20440;-72
2020/12/02 01:03:09;;;;;;;83.37;45.20;;;;;;;2.15;95.66;101010.66;5053298;28;20266;-72
2020/12/02 01:05:37;;;;;;;93.53;48.70;;;;;;;2.13;95.44;101013.59;5053512;28;20505;-72
2020/12/02 01:08:22;;;;;;;83.97;46.50;;;;;;;2.12;95.56;101013.84;5053057;28;20429;-72
2020/12/02 01:10:59;;;;;;;92.23;46.57;;;;;;;2.10;95.35;101022.16;5053199;28;20475;-71
2020/12/02 01:13:25;;;;;;;88.23;47.77;;;;;;;2.12;95.75;101021.91;5053706;28;20815;-72
2020/12/02 01:15:51;;;;;;;92.20;47.23;;;;;;;2.13;95.48;101012.78;5052789;28;20892;-74
2020/12/02 01:18:24;;;;;;;88.70;45.77;;;;;;;2.17;95.63;101019.31;5052561;28;20561;-72
2020/12/02 01:20:58;;;;;;;87.63;46.97;;;;;;;2.11;95.65;101015.72;5052838;28;20178;-72
2020/12/02 01:23:24;;;;;;;82.23;46.90;;;;;;;2.14;95.84;101019.78;5052911;28;21050;-71
2020/12/02 01:25:51;;;;;;;86.93;45.03;;;;;;;2.15;95.59;101021.44;5052749;28;20508;-71
2020/12/02 01:28:26;;;;;;;79.97;44.37;;;;;;;2.15;95.93;101011.47;5052264;28;20175;-71
2020/12/02 01:30:53;;;;;;;80.63;43.27;;;;;;;2.12;95.81;101011.13;5034769;28;20425;-70
2020/12/02 01:33:19;;;;;;;82.80;45.57;;;;;;;2.12;95.82;101014.66;5052707;28;20418;-74
2020/12/02 01:35:48;;;;;;;82.07;44.47;;;;;;;2.13;95.84;101010.91;5052614;28;20416;-72
2020/12/02 01:38:20;;;;;;;81.77;44.87;;;;;;;2.13;95.82;101013.59;5052368;28;20191;-72
2020/12/02 01:40:45;;;;;;;87.77;46.63;;;;;;;2.11;95.95;101013.00;5052415;28;20514;-71
2020/12/02 01:43:12;;;;;;;83.77;47.67;;;;;;;2.08;95.75;101008.13;5052342;28;20526;-71
2020/12/02 01:45:44;;;;;;;86.13;47.93;;;;;;;2.09;95.97;101005.19;5052517;28;20175;-74
2020/12/02 01:48:31;;;;;;;87.80;46.67;;;;;;;2.08;95.83;101014.31;5052269;28;20444;-75
2020/12/02 01:51:13;;;;;;;84.43;45.37;;;;;;;2.11;95.71;101012.19;5032531;28;20414;-73
2020/12/02 01:53:46;;;;;;;82.90;46.10;;;;;;;2.11;96.02;101015.72;5032616;28;20791;-74
2020/12/02 01:56:26;;;;;;;91.17;46.67;;;;;;;2.10;96.04;101014.06;5032447;28;20419;-73
2020/12/02 01:59:13;;;;;;;89.53;49.80;;;;;;;2.07;95.90;101012.69;5032367;28;20469;-72
2020/12/02 02:02:05;;;;;;;92.30;49.37;;;;;;;2.06;96.07;101008.34;5018394;28;20852;-71
2020/12/02 02:04:42;;;;;;;94.93;48.37;;;;;;;2.07;96.14;101009.19;5069799;28;20486;-79
2020/12/02 02:07:18;;;;;;;97.43;48.87;;;;;;;2.05;96.13;101006.72;5060884;28;20899;-77
2020/12/02 02:09:47;;;;;;;93.43;48.90;;;;;;;2.08;96.22;101006.25;5059392;28;20955;-73
2020/12/02 02:12:56;;;;;;;97.40;48.63;;;;;;;2.08;95.88;101006.25;5033855;28;20434;-75
2020/12/02 02:15:39;;;;;;;81.63;45.90;;;;;;;2.07;95.87;100999.22;5051965;28;20405;-76
2020/12/02 02:18:15;;;;;;;90.83;46.27;;;;;;;2.05;95.98;101000.53;5051521;28;20468;-76
2020/12/02 02:20:45;;;;;;;89.67;47.50;;;;;;;2.06;96.08;101002.97;5051750;28;20456;-81
2020/12/02 02:23:13;;;;;;;91.93;46.03;;;;;;;2.07;96.29;100999.22;5059853;28;20433;-78
2020/12/02 02:25:42;;;;;;;97.73;48.17;;;;;;;2.06;96.37;101002.97;5071440;28;20432;-72
2020/12/02 02:28:08;;;;;;;91.67;48.67;;;;;;;2.06;96.14;101002.16;5071253;28;20437;-73
2020/12/02 02:30:34;;;;;;;94.37;46.47;;;;;;;2.07;96.21;101001.91;5071774;28;20417;-76
2020/12/02 02:33:00;;;;;;;93.73;48.63;;;;;;;2.05;96.20;100995.94;5071325;28;20450;-76
2020/12/02 02:35:28;;;;;;;94.67;47.77;;;;;;;2.05;95.73;100998.63;5071502;28;20235;-73
2020/12/02 02:37:53;;;;;;;88.77;48.23;;;;;;;2.05;96.12;100995.94;5071140;28;20962;-74
2020/12/02 02:40:19;;;;;;;93.13;47.77;;;;;;;2.05;95.98;100989.75;5070464;28;20448;-71
2020/12/02 02:42:48;;;;;;;91.83;48.20;;;;;;;2.06;96.27;100994.06;5071236;28;20254;-74
2020/12/02 02:45:23;;;;;;;89.77;44.80;;;;;;;2.11;96.16;100988.75;5060773;28;20187;-75
2020/12/02 02:47:49;;;;;;;92.17;46.40;;;;;;;2.11;96.26;100987.94;5051036;28;20470;-77
2020/12/02 02:50:17;;;;;;;76.70;39.20;;;;;;;2.16;96.07;100990.72;5050880;28;20421;-77
2020/12/02 02:52:43;;;;;;;89.17;43.93;;;;;;;2.11;96.13;100988.75;5051928;28;20182;-70
2020/12/02 02:55:13;;;;;;;89.90;44.43;;;;;;;2.11;96.15;100985.25;5052405;28;20171;-71
2020/12/02 02:57:39;;;;;;;89.23;47.77;;;;;;;2.07;95.94;100987.63;5052482;28;20492;-70
2020/12/02 03:00:09;;;;;;;83.33;45.23;;;;;;;2.13;96.18;100991.22;5050872;28;20424;-70
2020/12/02 03:02:34;;;;;;;88.87;43.47;;;;;;;2.11;95.89;100994.16;5033049;28;20901;-72
2020/12/02 03:05:00;;;;;;;88.97;44.87;;;;;;;2.07;96.06;100988.44;5050934;28;20550;-70
2020/12/02 03:07:26;;;;;;;94.20;46.30;;;;;;;2.09;96.21;100993.56;5051317;28;20207;-70
2020/12/02 03:09:51;;;;;;;90.97;47.43;;;;;;;2.10;96.02;100989.81;5050461;28;20445;-71
2020/12/02 03:12:17;;;;;;;89.13;44.13;;;;;;;2.08;96.13;100984.69;5050507;28;20182;-71
2020/12/02 03:14:43;;;;;;;89.83;46.50;;;;;;;2.03;96.10;100981.91;5050962;28;20658;-71
2020/12/02 03:17:17;;;;;;;91.03;47.33;;;;;;;2.02;96.00;100984.81;5050468;28;20302;-71
2020/12/02 03:19:50;;;;;;;96.70;48.50;;;;;;;2.01;96.19;100980.47;5051040;28;20206;-78
2020/12/02 03:22:20;;;;;;;94.13;48.00;;;;;;;2.00;96.17;100979.66;5033060;28;20509;-75
2020/12/02 03:24:46;;;;;;;94.20;47.20;;;;;;;1.99;96.21;100977.22;5051107;28;20171;-78
2020/12/02 03:27:12;;;;;;;97.27;48.60;;;;;;;2.00;96.00;100979.66;5050627;28;20948;-79
2020/12/02 03:29:38;;;;;;;93.40;47.23;;;;;;;2.02;96.04;100974.03;5051254;28;20414;-77
2020/12/02 03:32:03;;;;;;;97.73;47.17;;;;;;;2.02;96.00;100971.34;5033933;28;20258;-72
2020/12/02 03:34:28;;;;;;;93.63;48.47;;;;;;;2.01;96.18;100972.41;5050634;28;20168;-77
2020/12/02 03:36:54;;;;;;;90.60;47.17;;;;;;;1.99;95.97;100974.53;5050509;28;20176;-80
2020/12/02 03:39:19;;;;;;;88.57;44.93;;;;;;;1.98;95.93;100968.31;5032620;28;20211;-75
2020/12/02 03:41:45;;;;;;;91.77;45.83;;;;;;;1.97;95.56;100977.47;5050405;28;20206;-78
2020/12/02 03:44:11;;;;;;;85.67;45.67;;;;;;;1.97;95.78;100980.16;5050554;28;20171;-72
2020/12/02 03:46:37;;;;;;;87.30;44.73;;;;;;;2.00;95.90;100976.97;5032793;28;20560;-75
2020/12/02 03:49:03;;;;;;;87.73;46.37;;;;;;;1.99;95.64;100977.22;5050517;28;20496;-80
2020/12/02 03:51:30;;;;;;;82.90;43.87;;;;;;;2.00;95.88;100981.53;5052936;28;20905;-79
2020/12/02 03:53:56;;;;;;;82.67;46.00;;;;;;;1.97;95.57;100973.94;5054473;28;20179;-80
2020/12/02 03:56:22;;;;;;;80.27;46.17;;;;;;;1.97;95.76;100977.47;5054215;28;20463;-76
2020/12/02 03:58:48;;;;;;;80.80;44.43;;;;;;;1.95;95.59;100971.50;5054540;28;20199;-77
2020/12/02 04:01:15;;;;;;;83.87;44.03;;;;;;;2.00;95.63;100970.75;5054449;28;20168;-74
2020/12/02 04:03:40;;;;;;;83.10;41.43;;;;;;;1.97;95.54;100966.69;5054329;28;20750;-74
2020/12/02 04:06:07;;;;;;;77.13;43.87;;;;;;;1.96;95.55;100969.63;5054156;28;20417;-77
2020/12/02 04:08:32;;;;;;;80.43;42.53;;;;;;;1.97;95.44;100960.47;5054011;28;20225;-71
2020/12/02 04:10:59;;;;;;;72.37;41.23;;;;;;;2.00;95.53;100960.81;5036130;28;20421;-74
2020/12/02 04:13:25;;;;;;;75.20;41.73;;;;;;;2.03;95.47;100956.84;5054150;28;20225;-75
2020/12/02 04:15:51;;;;;;;86.30;45.07;;;;;;;1.96;95.44;100956.97;5054113;28;20413;-74
2020/12/02 04:18:16;;;;;;;79.30;43.57;;;;;;;1.97;95.26;100960.47;5053712;28;20203;-73
2020/12/02 04:20:41;;;;;;;79.70;43.13;;;;;;;1.96;95.39;100951.56;5054352;28;20221;-77
2020/12/02 04:23:07;;;;;;;80.20;44.47;;;;;;;1.96;94.87;100953.44;5053969;28;20171;-73
2020/12/02 04:25:32;;;;;;;78.37;44.60;;;;;;;1.94;95.51;100950.19;5053768;28;20217;-76
2020/12/02 04:27:57;;;;;;;77.60;41.53;;;;;;;2.03;95.51;100954.13;5053951;28;20254;-72
2020/12/02 04:30:23;;;;;;;72.40;40.50;;;;;;;2.06;95.49;100941.00;5053774;28;20254;-73
2020/12/02 04:32:49;;;;;;;71.80;41.20;;;;;;;2.03;95.38;100954.13;5053816;28;20583;-72
2020/12/02 04:35:15;;;;;;;74.90;42.07;;;;;;;2.00;95.55;100954.59;5053709;28;20246;-77
2020/12/02 04:37:42;;;;;;;75.30;40.67;;;;;;;2.00;95.21;100955.41;5053496;28;20254;-76
2020/12/02 04:40:13;;;;;;;76.23;42.00;;;;;;;1.96;95.15;100945.38;5053484;28;20452;-78
2020/12/02 04:42:44;;;;;;;75.27;42.07;;;;;;;1.95;95.15;100947.25;5053498;28;20425;-78
2020/12/02 04:45:13;;;;;;;85.93;42.93;;;;;;;1.94;95.69;100942.09;5053697;28;20418;-78
2020/12/02 04:47:41;;;;;;;78.43;41.80;;;;;;;1.93;95.53;100948.56;5053292;28;20422;-74
2020/12/02 04:50:22;;;;;;;81.77;44.23;;;;;;;1.96;95.85;100942.69;5053375;28;20512;-77
2020/12/02 04:53:00;;;;;;;84.40;45.47;;;;;;;1.96;95.63;100948.06;5053154;28;20418;-76
2020/12/02 04:55:27;;;;;;;83.30;42.33;;;;;;;1.97;95.78;100938.91;5035388;28;20426;-80
2020/12/02 04:57:52;;;;;;;89.13;45.87;;;;;;;1.93;95.73;100933.19;5053040;28;20414;-76
2020/12/02 05:00:33;;;;;;;83.77;43.97;;;;;;;1.92;95.81;100938.84;5053318;28;20425;-77
2020/12/02 05:03:11;;;;;;;80.27;42.63;;;;;;;1.99;95.39;100931.41;5052077;28;20505;-74
2020/12/02 05:05:37;;;;;;;85.83;45.03;;;;;;;1.97;95.65;100939.72;5053339;28;20416;-81
2020/12/02 05:08:23;;;;;;;89.27;45.37;;;;;;;2.02;95.72;100936.31;5052954;28;20787;-72
2020/12/02 05:10:49;;;;;;;83.27;43.63;;;;;;;1.93;95.30;100933.19;5053433;28;20178;-72
2020/12/02 05:13:14;;;;;;;84.30;44.87;;;;;;;1.97;95.10;100942.44;5052964;28;20795;-77
2020/12/02 05:15:40;;;;;;;88.70;46.17;;;;;;;2.02;95.16;100939.00;5053023;28;20762;-75
2020/12/02 05:18:10;;;;;;;84.27;43.27;;;;;;;2.04;94.89;100942.28;5052568;28;20584;-73
2020/12/02 05:20:36;;;;;;;88.00;46.73;;;;;;;1.98;94.72;100935.16;5052930;28;20210;-73
2020/12/02 05:23:19;;;;;;;82.43;44.10;;;;;;;2.02;94.75;100930.91;5052805;28;20256;-72
2020/12/02 05:25:45;;;;;;;85.20;44.77;;;;;;;1.99;94.48;100942.19;5052743;28;20261;-75
2020/12/02 05:28:16;;;;;;;83.73;43.27;;;;;;;2.00;94.24;100933.03;5052388;28;20555;-73
2020/12/02 05:30:41;;;;;;;80.70;44.00;;;;;;;1.98;93.56;100929.78;5052796;28;20260;-77
2020/12/02 05:33:17;;;;;;;78.77;42.73;;;;;;;1.96;94.03;100929.19;5052632;28;20852;-75
2020/12/02 05:35:47;;;;;;;83.93;45.10;;;;;;;1.97;94.11;100934.34;5052687;28;20179;-76
2020/12/02 05:38:21;;;;;;;85.67;45.53;;;;;;;1.90;94.09;100922.09;5052362;28;20462;-73
2020/12/02 05:40:50;;;;;;;87.00;45.10;;;;;;;1.93;94.58;100927.81;5057021;28;20594;-77
2020/12/02 05:43:22;;;;;;;97.43;48.37;;;;;;;1.89;94.48;100925.84;5061619;28;20421;-73
2020/12/02 05:45:51;;;;;;;89.20;48.53;;;;;;;1.92;94.49;100930.75;5068657;28;20796;-73
2020/12/02 05:48:22;;;;;;;85.77;44.87;;;;;;;1.95;94.43;100927.56;5058550;28;20429;-81
2020/12/02 05:50:49;;;;;;;85.03;45.87;;;;;;;1.92;94.27;100923.50;5052235;28;20417;-79
2020/12/02 05:53:23;;;;;;;82.50;42.80;;;;;;;1.92;94.39;100920.78;5052270;28;20430;-73
2020/12/02 05:55:49;;;;;;;84.13;43.30;;;;;;;1.98;94.27;100921.69;5052390;28;20417;-79
2020/12/02 05:58:22;;;;;;;83.63;44.70;;;;;;;1.95;94.26;100923.00;5051915;28;20519;-73
2020/12/02 06:00:47;;;;;;;87.57;47.03;;;;;;;1.93;94.23;100921.63;5052004;28;20424;-75
2020/12/02 06:03:17;;;;;;;89.53;45.77;;;;;;;1.92;94.19;100911.91;5052120;28;20426;-76
2020/12/02 06:05:42;;;;;;;89.00;46.47;;;;;;;1.89;94.27;100907.00;5052081;28;20202;-76
2020/12/02 06:08:10;;;;;;;87.33;44.60;;;;;;;1.88;94.37;100914.28;5051829;28;20952;-77
2020/12/02 06:10:41;;;;;;;92.67;45.50;;;;;;;1.92;94.30;100906.50;5051986;28;20682;-80
2020/12/02 06:13:06;;;;;;;85.37;46.20;;;;;;;1.88;94.41;100908.88;5051664;28;20413;-76
2020/12/02 06:15:36;;;;;;;89.27;46.80;;;;;;;1.89;94.72;100905.13;5051884;28;20418;-80
2020/12/02 06:18:26;;;;;;;81.50;44.10;;;;;;;1.89;94.47;100904.31;5051598;28;20521;-75
2020/12/02 06:20:51;;;;;;;85.43;43.00;;;;;;;1.91;94.66;100904.88;5051752;28;20751;-74
2020/12/02 06:23:17;;;;;;;85.97;45.83;;;;;;;1.93;94.45;100894.66;5051692;28;20425;-74
2020/12/02 06:25:47;;;;;;;94.60;47.13;;;;;;;1.88;94.69;100905.34;5051599;28;20172;-73
2020/12/02 06:28:22;;;;;;;90.40;47.17;;;;;;;1.87;94.46;100909.91;5051472;28;20183;-80
2020/12/02 06:30:58;;;;;;;95.07;48.07;;;;;;;1.86;94.70;100899.38;5051466;28;20421;-76
2020/12/02 06:33:34;;;;;;;86.53;44.93;;;;;;;1.90;94.60;100905.94;5051568;28;20816;-74
2020/12/02 06:36:12;;;;;;;85.20;43.37;;;;;;;1.87;94.66;100906.41;5062597;28;20440;-78
2020/12/02 06:38:38;;;;;;;85.67;45.47;;;;;;;1.87;94.47;100906.41;5071184;28;20541;-72
2020/12/02 06:41:21;;;;;;;93.43;47.17;;;;;;;1.91;94.82;100911.09;5071209;28;20504;-73
2020/12/02 06:43:54;;;;;;;87.80;45.93;;;;;;;1.91;94.39;100904.88;5040083;28;20175;-80
2020/12/02 06:46:41;;;;;;;90.00;47.40;;;;;;;1.90;94.42;100914.03;5051179;28;20417;-72
2020/12/02 06:49:08;;;;;;;79.20;44.33;;;;;;;1.88;94.67;100913.41;5051249;28;20402;-77
2020/12/02 06:51:34;;;;;;;83.07;44.53;;;;;;;1.91;94.63;100908.38;5051139;28;20414;-74
2020/12/02 06:53:59;;;;;;;87.47;45.23;;;;;;;1.92;94.49;100891.16;5051182;28;20421;-76
2020/12/02 06:56:25;;;;;;;82.30;43.90;;;;;;;2.05;94.47;100893.53;5051045;28;20182;-78
2020/12/02 06:59:06;;;;;;;81.93;42.47;;;;;;;2.10;94.14;100890.09;5051001;28;20199;-74
2020/12/02 07:01:33;;;;;;;78.33;42.83;;;;;;;2.13;93.80;100896.88;5051044;28;20240;-74
2020/12/02 07:04:05;;;;;;;76.87;42.67;;;;;;;2.20;93.94;100897.56;5051136;28;20413;-71
2020/12/02 07:06:31;;;;;;;72.80;41.70;;;;;;;2.41;93.72;100890.59;5052207;28;20443;-71
2020/12/02 07:09:07;;;;;;;74.60;40.93;;;;;;;2.27;93.22;100893.63;5052721;28;20636;-71
2020/12/02 07:11:32;;;;;;;78.20;42.57;;;;;;;2.38;93.40;100891.91;5051254;28;20250;-71
2020/12/02 07:14:14;;;;;;;76.67;40.97;;;;;;;2.29;93.23;100894.19;5050873;28;20312;-70
2020/12/02 07:16:39;;;;;;;75.00;41.37;;;;;;;2.27;93.08;100896.31;5050634;28;20266;-71
2020/12/02 07:19:14;;;;;;;78.87;42.80;;;;;;;2.19;93.30;100893.22;5050626;28;20341;-71
2020/12/02 07:21:49;;;;;;;77.07;42.77;;;;;;;2.24;93.50;100890.59;5050693;28;20647;-71
2020/12/02 07:24:19;;;;;;;80.67;42.67;;;;;;;2.18;93.45;100891.59;5050718;28;20413;-71
2020/12/02 07:26:44;;;;;;;85.63;44.90;;;;;;;2.10;93.62;100892.81;5049877;28;20175;-70
2020/12/02 07:29:17;;;;;;;74.57;42.17;;;;;;;2.13;93.81;100894.19;5050613;28;20179;-70
2020/12/02 07:31:43;;;;;;;92.10;50.13;;;;;;;2.13;93.91;100895.00;5050324;28;20419;-71
2020/12/02 07:34:15;;;;;;;90.00;45.33;;;;;;;2.15;94.14;100897.44;5050626;28;20167;-71
2020/12/02 07:36:41;;;;;;;84.73;44.97;;;;;;;2.10;94.36;100895.50;5050720;28;20179;-71
2020/12/02 07:39:16;;;;;;;84.37;45.27;;;;;;;2.14;94.22;100893.13;5050166;28;20214;-71
2020/12/02 07:42:22;;;;;;;84.67;44.47;;;;;;;2.14;94.05;100893.94;5050489;28;20228;-71
2020/12/02 07:45:03;;;;;;;81.53;44.60;;;;;;;2.03;94.13;100889.47;5010683;28;20186;-71
2020/12/02 07:47:29;;;;;;;83.30;43.67;;;;;;;1.93;94.35;100891.97;5050293;28;20210;-71
2020/12/02 07:50:28;;;;;;;89.57;47.47;;;;;;;1.91;94.48;100886.84;5050329;28;20639;-70
2020/12/02 07:53:05;;;;;;;91.97;49.53;;;;;;;1.86;94.52;100885.91;5050381;28;20183;-70
2020/12/02 07:55:37;;;;;;;100.33;51.13;;;;;;;1.91;94.99;100881.44;5050428;28;20175;-70
2020/12/02 07:58:04;;;;;;;94.83;46.50;;;;;;;1.96;94.73;100880.72;5050072;28;20425;-71
2020/12/02 08:00:37;;;;;;;96.93;50.80;;;;;;;1.92;94.63;100888.47;5050343;28;20475;-71
2020/12/02 08:03:04;;;;;;;110.10;53.33;;;;;;;1.86;94.40;100888.59;5050424;28;20425;-72
2020/12/02 08:05:45;;;;;;;103.33;51.63;;;;;;;1.86;94.57;100892.13;5050237;28;20421;-70
2020/12/02 08:08:11;;;;;;;97.47;49.53;;;;;;;1.87;94.68;100887.53;5050129;28;20468;-72
2020/12/02 08:10:37;;;;;;;96.63;48.43;;;;;;;1.87;94.80;100890.22;5049840;28;20755;-72
2020/12/02 08:13:15;;;;;;;98.63;50.00;;;;;;;1.90;94.57;100885.19;5050160;28;20195;-73
2020/12/02 08:15:49;;;;;;;96.63;49.07;;;;;;;1.90;94.65;100887.91;5050249;28;20447;-72
2020/12/02 08:18:19;;;;;;;90.53;47.90;;;;;;;1.92;94.48;100885.78;5049850;28;20465;-72
2020/12/02 08:20:44;;;;;;;95.27;47.63;;;;;;;2.00;94.46;100884.53;5050097;28;20436;-72
2020/12/02 08:23:28;;;;;;;91.53;47.27;;;;;;;2.00;94.69;100887.22;5049835;28;20743;-72
2020/12/02 08:26:23;;;;;;;93.37;47.23;;;;;;;2.07;94.42;100880.63;5050131;28;20653;-72
2020/12/02 08:28:51;;;;;;;94.90;48.03;;;;;;;1.93;94.46;100868.53;5049536;28;20909;-73
2020/12/02 08:31:29;;;;;;;96.30;48.33;;;;;;;1.94;94.70;100880.13;5049948;28;20418;-72
2020/12/02 08:34:17;;;;;;;97.17;47.60;;;;;;;2.01;94.67;100870.00;5050129;28;20464;-72
2020/12/02 08:36:49;;;;;;;95.73;46.37;;;;;;;2.05;94.54;100871.97;5049898;28;20418;-73
2020/12/02 08:39:28;;;;;;;93.30;46.73;;;;;;;2.13;94.51;100870.75;5053293;28;20214;-72
2020/12/02 08:41:53;;;;;;;91.13;45.30;;;;;;;2.14;94.56;100880.47;5035504;28;20437;-72
2020/12/02 08:44:19;;;;;;;93.90;47.67;;;;;;;2.19;94.47;100866.28;5053619;28;20421;-72
2020/12/02 08:47:07;;;;;;;93.00;47.57;;;;;;;2.16;94.23;100872.94;5035429;28;20234;-73
2020/12/02 08:49:34;;;;;;;97.07;47.53;;;;;;;2.11;94.28;100863.97;5053301;28;20273;-71
2020/12/02 08:51:59;;;;;;;89.90;47.43;;;;;;;2.13;94.14;100869.94;5053293;28;20422;-72
2020/12/02 08:54:25;;;;;;;92.70;47.37;;;;;;;2.13;94.31;100867.22;5053231;28;20413;-72
2020/12/02 08:57:00;;;;;;;84.70;44.83;;;;;;;2.24;94.24;100860.94;5053112;28;20171;-71
2020/12/02 08:59:25;;;;;;;86.90;44.43;;;;;;;2.25;93.75;100863.41;5053281;28;20229;-71
2020/12/02 09:01:51;;;;;;;86.40;45.00;;;;;;;2.17;93.69;100866.53;5035395;28;20627;-72
2020/12/02 09:04:16;;;;;;;91.00;45.30;;;;;;;2.18;93.81;100870.84;5053301;28;20570;-74
2020/12/02 09:06:43;;;;;;;92.90;45.77;;;;;;;2.21;93.74;100870.34;5035166;28;20236;-73
2020/12/02 09:09:08;;;;;;;85.97;44.73;;;;;;;2.16;93.69;100855.97;5035186;28;20175;-76
2020/12/02 09:11:37;;;;;;;86.47;45.47;;;;;;;2.21;93.67;100853.38;5053502;28;20692;-74
2020/12/02 09:14:04;;;;;;;91.87;45.73;;;;;;;2.19;93.79;100853.63;5053243;28;20262;-77
2020/12/02 09:16:33;;;;;;;83.90;42.40;;;;;;;2.28;93.78;100854.00;5053113;28;20864;-78
2020/12/02 09:18:59;;;;;;;90.37;46.20;;;;;;;2.16;93.93;100840.59;5053155;28;20738;-77
2020/12/02 09:21:26;;;;;;;90.40;45.57;;;;;;;2.19;93.94;100850.09;5053670;28;20414;-77
2020/12/02 09:23:54;;;;;;;90.47;46.70;;;;;;;2.21;93.83;100845.28;5053400;28;20462;-77
2020/12/02 09:26:21;;;;;;;98.93;47.80;;;;;;;2.22;93.82;100844.22;5035337;28;20422;-78
2020/12/02 09:28:48;;;;;;;102.03;48.03;;;;;;;2.12;94.31;100834.09;5035344;28;20993;-76
2020/12/02 09:31:14;;;;;;;99.70;48.53;;;;;;;2.17;94.17;100836.88;5053405;28;20410;-76
2020/12/02 09:33:39;;;;;;;91.10;46.47;;;;;;;2.08;94.23;100831.06;5065808;28;20463;-81
2020/12/02 09:36:05;;;;;;;97.23;49.97;;;;;;;2.13;94.61;100834.91;5072726;28;20432;-80
2020/12/02 09:38:31;;;;;;;97.13;48.50;;;;;;;2.18;94.38;100826.91;5070388;28;20201;-81
2020/12/02 09:41:16;;;;;;;92.80;47.37;;;;;;;2.29;94.13;100824.09;5052626;28;20671;-79
2020/12/02 09:44:16;;;;;;;87.23;45.10;;;;;;;2.24;94.04;100828.59;5052358;28;20597;-80
2020/12/02 09:46:43;;;;;;;89.83;43.40;;;;;;;2.24;93.99;100829.41;5025977;28;20179;-79
2020/12/02 09:49:11;;;;;;;87.87;43.50;;;;;;;2.24;93.76;100826.72;5060214;28;20421;-81
2020/12/02 09:51:37;;;;;;;88.03;43.87;;;;;;;2.22;93.64;100833.44;5064785;28;20428;-77
2020/12/02 09:54:02;;;;;;;86.37;45.77;;;;;;;2.24;93.53;100820.53;5072221;28;20421;-80
2020/12/02 09:56:28;;;;;;;84.37;44.30;;;;;;;2.37;93.60;100826.38;5071793;28;20574;-74
2020/12/02 09:59:06;;;;;;;82.97;43.57;;;;;;;2.35;93.80;100817.72;5068301;28;20248;-77
2020/12/02 10:01:51;;;;;;;92.17;45.13;;;;;;;2.26;93.88;100811.13;5052025;28;20289;-80
2020/12/02 10:04:38;;;;;;;86.90;43.77;;;;;;;2.19;93.61;100810.50;5071979;28;20170;-81
2020/12/02 10:07:30;;;;;;;89.63;44.57;;;;;;;2.22;93.99;100804.59;5032243;28;20415;-77
2020/12/02 10:10:20;;;;;;;82.33;43.53;;;;;;;2.36;93.63;100796.97;5014197;28;20473;-72
2020/12/02 10:13:07;;;;;;;76.60;41.00;;;;;;;2.53;93.23;100789.66;5031975;28;20422;-75
2020/12/02 10:16:04;;;;;;;80.33;41.00;;;;;;;2.58;93.10;100783.50;5031843;28;20168;-78
2020/12/02 10:18:36;;;;;;;76.43;40.47;;;;;;;2.46;92.91;100785.50;4993449;28;20262;-79
2020/12/02 10:21:29;;;;;;;78.83;41.07;;;;;;;2.37;93.08;100780.56;5031839;28;20430;-78
2020/12/02 10:24:34;;;;;;;83.37;41.70;;;;;;;2.38;93.14;100762.50;5031764;28;20204;-75
2020/12/02 10:27:25;;;;;;;80.07;40.43;;;;;;;2.54;92.84;100774.28;5031004;28;20441;-77
2020/12/02 10:29:50;;;;;;;75.30;40.60;;;;;;;2.58;93.13;100761.94;5051524;28;20421;-75
2020/12/02 10:32:35;;;;;;;84.57;42.20;;;;;;;2.70;92.49;100762.63;5051650;28;20183;-78
2020/12/02 10:35:00;;;;;;;70.13;39.57;;;;;;;2.88;92.57;100761.47;5051696;28;20261;-82
2020/12/02 10:37:31;;;;;;;72.90;39.97;;;;;;;3.02;92.12;100756.50;5071054;28;20273;-79
2020/12/02 10:39:57;;;;;;;71.00;39.77;;;;;;;3.02;91.48;100754.63;5067628;28;20210;-74
2020/12/02 10:42:46;;;;;;;71.93;41.07;;;;;;;2.98;91.66;100740.81;5041805;28;20691;-76
2020/12/02 10:45:15;;;;;;;72.33;38.97;;;;;;;2.98;91.61;100737.31;5051324;28;20212;-72
2020/12/02 10:47:49;;;;;;;72.73;39.03;;;;;;;2.93;91.50;100731.88;5060731;28;20186;-76
2020/12/02 10:50:24;;;;;;;73.60;40.40;;;;;;;3.08;90.96;100736.63;5054266;28;20422;-75
2020/12/02 10:52:54;;;;;;;74.43;38.30;;;;;;;2.99;91.22;100726.25;5051275;28;20179;-75
2020/12/02 10:55:25;;;;;;;80.93;41.03;;;;;;;2.81;91.08;100725.81;5051201;28;20186;-80
2020/12/02 10:58:02;;;;;;;75.57;40.03;;;;;;;2.85;91.72;100716.94;5050952;28;20229;-75
2020/12/02 11:00:28;;;;;;;72.80;39.50;;;;;;;3.02;91.59;100714.13;5050672;28;20179;-75
2020/12/02 11:03:12;;;;;;;71.30;39.50;;;;;;;3.03;91.47;100707.66;5050961;28;20175;-80
2020/12/02 11:05:38;;;;;;;67.53;37.33;;;;;;;3.18;91.03;100704.31;5033027;28;20183;-81
2020/12/02 11:08:11;;;;;;;66.53;37.07;;;;;;;3.33;90.82;100699.06;5050721;28;20210;-80
2020/12/02 11:10:51;;;;;;;71.63;38.00;;;;;;;3.29;90.24;100695.22;5050918;28;20182;-81
2020/12/02 11:14:03;;;;;;;68.93;35.30;;;;;;;3.43;90.13;100691.03;5050896;28;20253;-81
2020/12/02 11:16:39;;;;;;;70.27;35.63;;;;;;;3.21;89.83;100688.44;4988913;28;20203;-81
2020/12/02 11:19:45;;;;;;;65.07;35.03;;;;;;;3.23;89.93;100685.47;5050634;28;20198;-80
2020/12/02 11:22:19;;;;;;;65.30;35.00;;;;;;;3.20;90.34;100677.88;5033059;28;20276;-80
2020/12/02 11:25:09;;;;;;;63.83;34.70;;;;;;;3.28;89.79;100672.81;5050755;28;20236;-78
2020/12/02 11:27:35;;;;;;;62.03;33.73;;;;;;;3.31;89.40;100666.09;5050549;28;20262;-73
2020/12/02 11:30:09;;;;;;;62.10;33.73;;;;;;;3.36;89.12;100657.22;5050420;28;20316;-74
2020/12/02 11:32:54;;;;;;;68.67;34.77;;;;;;;3.39;89.04;100662.91;5050512;28;20261;-83
2020/12/02 11:35:47;;;;;;;61.13;33.27;;;;;;;3.40;89.08;100653.75;5050655;28;20182;-81
2020/12/02 11:38:21;;;;;;;59.03;32.60;;;;;;;3.43;89.02;100653.22;5050411;28;20183;-78